Time,TemperatureF,DewpointF,PressureIn,WindDirection,WindDirectionDegrees,WindSpeedMPH,WindSpeedGustMPH,Humidity,HourlyPrecipIn,Conditions,Clouds,dailyrainin,SoftwareType,DateUTC
2013-07-19 00:02:00,67.5,37.0,29.91,NW,315,1.0,3.0,32,0.00,,,0.00,weatherlink.com 1.10,2013-07-19 07:02:00,
2013-07-19 00:17:00,66.9,36.0,29.91,NW,315,2.0,3.0,32,0.00,,,0.00,weatherlink.com 1.10,2013-07-19 07:17:00,
2013-07-19 00:32:00,66.9,35.0,29.91,NW,315,1.0,6.0,31,0.00,,,0.00,weatherlink.com 1.10,2013-07-19 07:32:00,
2013-07-19 00:47:00,66.6,34.0,29.91,NW,315,0.0,1.0,30,0.00,,,0.00,weatherlink.com 1.10,2013-07-19 07:47:00,
2013-07-19 01:02:00,67.4,31.0,29.91,West,279,0.0,9.0,26,0.00,,,0.00,weatherlink.com 1.10,2013-07-19 08:02:00,
2013-07-19 01:19:00,68.7,29.0,29.91,West,273,1.0,8.0,23,0.00,,,0.00,weatherlink.com 1.10,2013-07-19 08:19:00,
2013-07-19 01:34:00,68.8,29.0,29.91,NW,306,0.0,2.0,23,0.00,,,0.00,weatherlink.com 1.10,2013-07-19 08:34:00,
2013-07-19 01:49:00,66.7,31.0,29.91,NW,305,0.0,1.0,26,0.00,,,0.00,weatherlink.com 1.10,2013-07-19 08:49:00,
2013-07-19 02:04:00,65.8,30.0,29.91,NW,305,0.0,0.0,26,0.00,,,0.00,weatherlink.com 1.10,2013-07-19 09:04:00,
2013-07-19 02:19:00,63.0,35.0,29.91,NW,305,0.0,0.0,35,0.00,,,0.00,weatherlink.com 1.10,2013-07-19 09:19:00,
2013-07-19 02:34:00,60.1,33.0,29.91,NW,304,0.0,0.0,36,0.00,,,0.00,weatherlink.com 1.10,2013-07-19 09:34:00,
2013-07-19 02:49:00,59.9,34.0,29.91,NW,305,0.0,0.0,38,0.00,,,0.00,weatherlink.com 1.10,2013-07-19 09:49:00,
2013-07-19 03:04:00,60.4,36.0,29.91,NW,306,0.0,0.0,40,0.00,,,0.00,weatherlink.com 1.10,2013-07-19 10:04:00,
2013-07-19 03:19:00,59.4,36.0,29.91,NW,306,0.0,0.0,42,0.00,,,0.00,weatherlink.com 1.10,2013-07-19 10:19:00,
2013-07-19 03:34:00,58.4,36.0,29.91,NW,304,0.0,0.0,43,0.00,,,0.00,weatherlink.com 1.10,2013-07-19 10:34:00,
2013-07-19 03:49:00,58.6,36.0,29.91,NW,306,0.0,0.0,43,0.00,,,0.00,weatherlink.com 1.10,2013-07-19 10:49:00,
2013-07-19 04:04:00,56.4,38.0,29.91,NW,305,1.0,1.0,50,0.00,,,0.00,weatherlink.com 1.10,2013-07-19 11:04:00,
2013-07-19 04:19:00,56.5,36.0,29.91,NW,305,0.0,0.0,47,0.00,,,0.00,weatherlink.com 1.10,2013-07-19 11:19:00,
2013-07-19 04:34:00,55.2,37.0,29.91,NW,305,0.0,0.0,50,0.00,,,0.00,weatherlink.com 1.10,2013-07-19 11:34:00,
2013-07-19 04:50:00,56.4,35.0,29.91,SSW,207,0.0,2.0,45,0.00,,,0.00,weatherlink.com 1.10,2013-07-19 11:50:00,
2013-07-19 05:05:00,56.2,35.0,29.91,SSW,204,0.0,1.0,46,0.00,,,0.00,weatherlink.com 1.10,2013-07-19 12:05:00,
2013-07-19 05:20:00,55.6,35.0,29.91,South,180,1.0,3.0,46,0.00,,,0.00,weatherlink.com 1.10,2013-07-19 12:20:00,
2013-07-19 05:35:00,56.3,34.0,29.92,South,180,0.0,1.0,43,0.00,,,0.00,weatherlink.com 1.10,2013-07-19 12:35:00,
2013-07-19 05:50:00,57.1,33.0,29.92,South,175,3.0,4.0,40,0.00,,,0.00,weatherlink.com 1.10,2013-07-19 12:50:00,
2013-07-19 06:05:00,55.8,35.0,29.92,South,172,0.0,3.0,45,0.00,,,0.00,weatherlink.com 1.10,2013-07-19 13:05:00,
2013-07-19 06:20:00,54.5,36.0,29.92,South,172,0.0,0.0,50,0.00,,,0.00,weatherlink.com 1.10,2013-07-19 13:20:00,
2013-07-19 06:36:00,54.9,36.0,29.92,South,172,0.0,0.0,50,0.00,,,0.00,weatherlink.com 1.10,2013-07-19 13:36:00,
2013-07-19 06:51:00,56.7,38.0,29.92,South,173,0.0,0.0,49,0.00,,,0.00,weatherlink.com 1.10,2013-07-19 13:51:00,
2013-07-19 07:06:00,58.4,39.0,29.92,South,172,0.0,0.0,48,0.00,,,0.00,weatherlink.com 1.10,2013-07-19 14:06:00,
2013-07-19 07:21:00,60.2,40.0,29.93,South,173,0.0,1.0,48,0.00,,,0.00,weatherlink.com 1.10,2013-07-19 14:21:00,
2013-07-19 07:36:00,62.0,42.0,29.93,South,173,0.0,0.0,48,0.00,,,0.00,weatherlink.com 1.10,2013-07-19 14:36:00,
2013-07-19 07:51:00,63.8,42.0,29.93,South,172,0.0,0.0,46,0.00,,,0.00,weatherlink.com 1.10,2013-07-19 14:51:00,
2013-07-19 08:06:00,65.6,43.0,29.93,South,173,0.0,0.0,44,0.00,,,0.00,weatherlink.com 1.10,2013-07-19 15:06:00,
2013-07-19 08:21:00,67.0,43.0,29.92,South,173,0.0,0.0,42,0.00,,,0.00,weatherlink.com 1.10,2013-07-19 15:21:00,
2013-07-19 08:37:00,68.8,42.0,29.92,South,172,0.0,0.0,38,0.00,,,0.00,weatherlink.com 1.10,2013-07-19 15:37:00,
2013-07-19 08:52:00,70.8,42.0,29.92,South,173,0.0,0.0,35,0.00,,,0.00,weatherlink.com 1.10,2013-07-19 15:52:00,
2013-07-19 09:07:00,72.7,41.0,29.92,South,173,0.0,3.0,32,0.00,,,0.00,weatherlink.com 1.10,2013-07-19 16:07:00,
2013-07-19 09:22:00,73.7,38.0,29.92,South,180,0.0,3.0,27,0.00,,,0.00,weatherlink.com 1.10,2013-07-19 16:22:00,
2013-07-19 09:37:00,75.5,38.0,29.91,West,279,0.0,3.0,26,0.00,,,0.00,weatherlink.com 1.10,2013-07-19 16:37:00,
2013-07-19 09:52:00,77.0,39.0,29.91,WNW,296,0.0,1.0,25,0.00,,,0.00,weatherlink.com 1.10,2013-07-19 16:52:00,
2013-07-19 10:09:00,77.6,39.0,29.90,WNW,294,0.0,1.0,25,0.00,,,0.00,weatherlink.com 1.10,2013-07-19 17:09:00,
2013-07-19 10:24:00,78.3,38.0,29.90,NW,306,0.0,3.0,23,0.00,,,0.00,weatherlink.com 1.10,2013-07-19 17:24:00,
2013-07-19 10:39:00,80.0,37.0,29.90,NNW,341,0.0,5.0,21,0.00,,,0.00,weatherlink.com 1.10,2013-07-19 17:39:00,
2013-07-19 10:54:00,81.4,38.0,29.89,NNW,329,2.0,5.0,21,0.00,,,0.00,weatherlink.com 1.10,2013-07-19 17:54:00,
2013-07-19 11:09:00,82.3,39.0,29.89,NNW,331,0.0,1.0,21,0.00,,,0.00,weatherlink.com 1.10,2013-07-19 18:09:00,
2013-07-19 11:24:00,85.6,41.0,29.89,NNE,14,0.0,4.0,21,0.00,,,0.00,weatherlink.com 1.10,2013-07-19 18:24:00,
2013-07-19 11:39:00,87.4,36.0,29.88,NNE,29,2.0,4.0,16,0.00,,,0.00,weatherlink.com 1.10,2013-07-19 18:39:00,
2013-07-19 11:54:00,87.1,39.0,29.88,North,355,0.0,7.0,18,0.00,,,0.00,weatherlink.com 1.10,2013-07-19 18:54:00,
2013-07-19 12:09:00,88.2,38.0,29.88,NNE,21,0.0,6.0,17,0.00,,,0.00,weatherlink.com 1.10,2013-07-19 19:09:00,
2013-07-19 12:25:00,89.8,39.0,29.87,NNW,341,0.0,5.0,17,0.00,,,0.00,weatherlink.com 1.10,2013-07-19 19:25:00,
2013-07-19 12:40:00,90.0,38.0,29.86,NNW,338,0.0,7.0,16,0.00,,,0.00,weatherlink.com 1.10,2013-07-19 19:40:00,
2013-07-19 12:55:00,93.2,42.0,29.86,NNE,29,2.0,6.0,17,0.00,,,0.00,weatherlink.com 1.10,2013-07-19 19:55:00,
2013-07-19 13:10:00,94.3,40.0,29.85,North,11,2.0,8.0,15,0.00,,,0.00,weatherlink.com 1.10,2013-07-19 20:10:00,
2013-07-19 13:25:00,92.9,44.0,29.84,NNE,18,0.0,6.0,18,0.00,,,0.00,weatherlink.com 1.10,2013-07-19 20:25:00,
2013-07-19 13:40:00,93.9,43.0,29.84,NNW,340,4.0,8.0,17,0.00,,,0.00,weatherlink.com 1.10,2013-07-19 20:40:00,
2013-07-19 13:56:00,96.4,40.0,29.83,NE,44,0.0,12.0,14,0.00,,,0.00,weatherlink.com 1.10,2013-07-19 20:56:00,
2013-07-19 14:11:00,97.9,41.0,29.82,North,5,3.0,9.0,14,0.00,,,0.00,weatherlink.com 1.10,2013-07-19 21:11:00,
2013-07-19 14:26:00,97.7,43.0,29.82,NNW,344,1.0,7.0,15,0.00,,,0.00,weatherlink.com 1.10,2013-07-19 21:26:00,
2013-07-19 14:41:00,96.5,38.0,29.82,NNW,327,2.0,6.0,13,0.00,,,0.00,weatherlink.com 1.10,2013-07-19 21:41:00,
2013-07-19 14:56:00,96.8,40.0,29.81,North,11,1.0,8.0,14,0.00,,,0.00,weatherlink.com 1.10,2013-07-19 21:56:00,
2013-07-19 15:11:00,98.5,38.0,29.81,NNE,22,3.0,8.0,12,0.00,,,0.00,weatherlink.com 1.10,2013-07-19 22:11:00,
2013-07-19 15:26:00,97.7,39.0,29.80,North,9,3.0,10.0,13,0.00,,,0.00,weatherlink.com 1.10,2013-07-19 22:26:00,
2013-07-19 15:42:00,99.2,42.0,29.80,NNE,15,1.0,5.0,14,0.00,,,0.00,weatherlink.com 1.10,2013-07-19 22:42:00,
2013-07-19 15:57:00,98.1,39.0,29.79,North,5,0.0,7.0,13,0.00,,,0.00,weatherlink.com 1.10,2013-07-19 22:57:00,
2013-07-19 16:12:00,99.3,38.0,29.79,NNE,22,0.0,8.0,12,0.00,,,0.00,weatherlink.com 1.10,2013-07-19 23:12:00,
2013-07-19 16:27:00,100.5,39.0,29.79,NE,51,2.0,5.0,12,0.00,,,0.00,weatherlink.com 1.10,2013-07-19 23:27:00,
2013-07-19 16:42:00,100.3,39.0,29.78,North,360,0.0,6.0,12,0.00,,,0.00,weatherlink.com 1.10,2013-07-19 23:42:00,
2013-07-19 16:57:00,99.9,39.0,29.78,NE,53,0.0,5.0,12,0.00,,,0.00,weatherlink.com 1.10,2013-07-19 23:57:00,
2013-07-19 17:14:00,100.8,43.0,29.77,NNE,25,3.0,5.0,14,0.00,,,0.00,weatherlink.com 1.10,2013-07-20 00:14:00,
2013-07-19 17:29:00,100.8,42.0,29.77,NE,35,4.0,7.0,13,0.00,,,0.00,weatherlink.com 1.10,2013-07-20 00:29:00,
2013-07-19 17:44:00,99.8,39.0,29.77,NE,42,6.0,12.0,12,0.00,,,0.00,weatherlink.com 1.10,2013-07-20 00:44:00,
2013-07-19 17:59:00,99.0,38.0,29.76,ENE,69,2.0,11.0,12,0.00,,,0.00,weatherlink.com 1.10,2013-07-20 00:59:00,
2013-07-19 18:14:00,99.1,44.0,29.76,NNE,21,5.0,9.0,15,0.00,,,0.00,weatherlink.com 1.10,2013-07-20 01:14:00,
2013-07-19 18:29:00,98.7,44.0,29.76,NNE,17,2.0,9.0,15,0.00,,,0.00,weatherlink.com 1.10,2013-07-20 01:29:00,
2013-07-19 18:44:00,97.7,46.0,29.76,North,9,0.0,6.0,17,0.00,,,0.00,weatherlink.com 1.10,2013-07-20 01:44:00,
2013-07-19 18:59:00,96.9,44.0,29.76,NNE,20,0.0,6.0,16,0.00,,,0.00,weatherlink.com 1.10,2013-07-20 01:59:00,
2013-07-19 19:14:00,95.2,45.0,29.76,NNW,342,0.0,4.0,18,0.00,,,0.00,weatherlink.com 1.10,2013-07-20 02:14:00,
2013-07-19 19:29:00,92.6,47.0,29.76,NW,321,4.0,8.0,21,0.00,,,0.00,weatherlink.com 1.10,2013-07-20 02:29:00,
2013-07-19 19:44:00,87.2,44.0,29.77,NW,317,13.0,18.0,22,0.00,,,0.00,weatherlink.com 1.10,2013-07-20 02:44:00,
2013-07-19 19:59:00,85.7,44.0,29.77,NW,321,8.0,13.0,23,0.00,,,0.00,weatherlink.com 1.10,2013-07-20 02:59:00,
2013-07-19 20:14:00,84.2,44.0,29.77,NW,314,5.0,15.0,24,0.00,,,0.00,weatherlink.com 1.10,2013-07-20 03:14:00,
2013-07-19 20:29:00,82.2,42.0,29.77,NW,309,10.0,13.0,24,0.00,,,0.00,weatherlink.com 1.10,2013-07-20 03:29:00,
2013-07-19 20:45:00,81.2,41.0,29.78,NW,324,8.0,13.0,24,0.00,,,0.00,weatherlink.com 1.10,2013-07-20 03:45:00,
2013-07-19 21:00:00,79.6,41.0,29.78,NW,304,7.0,15.0,25,0.00,,,0.00,weatherlink.com 1.10,2013-07-20 04:00:00,
2013-07-19 21:15:00,78.3,41.0,29.79,NW,315,7.0,13.0,26,0.00,,,0.00,weatherlink.com 1.10,2013-07-20 04:15:00,
2013-07-19 21:30:00,77.3,39.0,29.79,NNW,327,13.0,13.0,25,0.00,,,0.00,weatherlink.com 1.10,2013-07-20 04:30:00,
2013-07-19 21:45:00,76.2,39.0,29.80,NW,308,6.0,12.0,26,0.00,,,0.00,weatherlink.com 1.10,2013-07-20 04:45:00,
2013-07-19 22:00:00,74.8,38.0,29.80,NW,305,4.0,8.0,26,0.00,,,0.00,weatherlink.com 1.10,2013-07-20 05:00:00,
2013-07-19 22:15:00,75.1,37.0,29.81,NW,316,2.0,13.0,25,0.00,,,0.00,weatherlink.com 1.10,2013-07-20 05:15:00,
2013-07-19 22:31:00,73.4,36.0,29.81,NW,317,0.0,3.0,26,0.00,,,0.00,weatherlink.com 1.10,2013-07-20 05:31:00,
2013-07-19 22:46:00,73.0,35.0,29.82,NW,321,3.0,10.0,25,0.00,,,0.00,weatherlink.com 1.10,2013-07-20 05:46:00,
2013-07-19 23:01:00,73.2,33.0,29.82,NW,316,2.0,6.0,23,0.00,,,0.00,weatherlink.com 1.10,2013-07-20 06:01:00,
2013-07-19 23:16:00,72.4,34.0,29.82,WNW,302,4.0,8.0,24,0.00,,,0.00,weatherlink.com 1.10,2013-07-20 06:16:00,
2013-07-19 23:31:00,71.9,33.0,29.82,NW,317,5.0,7.0,24,0.00,,,0.00,weatherlink.com 1.10,2013-07-20 06:31:00,
2013-07-19 23:46:00,71.3,32.0,29.82,NW,315,4.0,8.0,23,0.00,,,0.00,weatherlink.com 1.10,2013-07-20 06:46:00,